sensor_id;sensor_type;location;lat;lon;timestamp;pressure;altitude;pressure_sealevel;temperature;humidity
21395;BME280;10858;42.714;23.180;2023-04-09T00:01:57;94601.59;;;6.80;84.89
21395;BME280;10858;42.714;23.180;2023-04-09T00:04:24;94602.31;;;6.95;84.30
21395;BME280;10858;42.714;23.180;2023-04-09T00:06:50;94597.94;;;7.07;84.10
21395;BME280;10858;42.714;23.180;2023-04-09T00:09:16;94595.44;;;7.05;84.16
21395;BME280;10858;42.714;23.180;2023-04-09T00:11:42;94601.09;;;7.12;84.33
21395;BME280;10858;42.714;23.180;2023-04-09T00:14:08;94605.59;;;7.22;84.18
21395;BME280;10858;42.714;23.180;2023-04-09T00:16:34;94602.22;;;7.20;83.79
21395;BME280;10858;42.714;23.180;2023-04-09T00:19:01;94604.13;;;7.18;84.08
21395;BME280;10858;42.714;23.180;2023-04-09T00:21:27;94600.47;;;7.08;84.90
21395;BME280;10858;42.714;23.180;2023-04-09T00:23:53;94603.97;;;6.96;85.89
21395;BME280;10858;42.714;23.180;2023-04-09T00:26:19;94604.75;;;7.22;85.87
21395;BME280;10858;42.714;23.180;2023-04-09T00:28:46;94608.34;;;7.33;84.92
21395;BME280;10858;42.714;23.180;2023-04-09T00:31:12;94610.16;;;7.08;86.02
21395;BME280;10858;42.714;23.180;2023-04-09T00:33:38;94615.44;;;7.08;86.74
21395;BME280;10858;42.714;23.180;2023-04-09T00:36:04;94615.28;;;7.34;86.35
21395;BME280;10858;42.714;23.180;2023-04-09T00:38:31;94611.28;;;7.29;85.82
21395;BME280;10858;42.714;23.180;2023-04-09T00:40:57;94614.44;;;7.34;85.91
21395;BME280;10858;42.714;23.180;2023-04-09T00:43:23;94608.25;;;7.46;85.32
21395;BME280;10858;42.714;23.180;2023-04-09T00:45:49;94614.53;;;7.32;85.83
21395;BME280;10858;42.714;23.180;2023-04-09T00:48:16;94611.72;;;7.59;84.87
21395;BME280;10858;42.714;23.180;2023-04-09T00:50:43;94599.38;;;7.59;84.46
21395;BME280;10858;42.714;23.180;2023-04-09T00:53:10;94597.66;;;7.58;84.04
21395;BME280;10858;42.714;23.180;2023-04-09T00:55:39;94598.06;;;7.65;83.90
21395;BME280;10858;42.714;23.180;2023-04-09T00:58:06;94594.69;;;7.63;83.24
21395;BME280;10858;42.714;23.180;2023-04-09T01:00:32;94595.75;;;7.60;83.13
21395;BME280;10858;42.714;23.180;2023-04-09T01:02:59;94599.53;;;7.45;83.05
21395;BME280;10858;42.714;23.180;2023-04-09T01:05:39;94596.09;;;7.20;84.30
21395;BME280;10858;42.714;23.180;2023-04-09T01:08:18;94600.50;;;6.96;85.16
21395;BME280;10858;42.714;23.180;2023-04-09T01:10:58;94606.56;;;6.72;86.78
21395;BME280;10858;42.714;23.180;2023-04-09T01:16:04;94607.34;;;7.11;87.00
21395;BME280;10858;42.714;23.180;2023-04-09T01:18:38;94609.41;;;7.18;86.51
21395;BME280;10858;42.714;23.180;2023-04-09T01:21:12;94613.50;;;7.35;86.79
21395;BME280;10858;42.714;23.180;2023-04-09T01:29:20;94612.03;;;7.54;85.70
21395;BME280;10858;42.714;23.180;2023-04-09T01:31:48;94608.66;;;7.52;86.17
21395;BME280;10858;42.714;23.180;2023-04-09T01:34:16;94611.59;;;7.84;85.90
21395;BME280;10858;42.714;23.180;2023-04-09T01:36:47;94613.09;;;7.99;84.94
21395;BME280;10858;42.714;23.180;2023-04-09T01:39:15;94602.53;;;7.99;84.46
21395;BME280;10858;42.714;23.180;2023-04-09T01:41:42;94609.28;;;8.03;84.66
21395;BME280;10858;42.714;23.180;2023-04-09T01:44:10;94606.38;;;7.95;84.26
21395;BME280;10858;42.714;23.180;2023-04-09T01:46:39;94608.66;;;7.76;85.28
21395;BME280;10858;42.714;23.180;2023-04-09T01:49:05;94610.53;;;7.63;85.88
21395;BME280;10858;42.714;23.180;2023-04-09T01:51:32;94609.34;;;7.67;86.30
21395;BME280;10858;42.714;23.180;2023-04-09T01:53:59;94606.56;;;7.92;86.04
21395;BME280;10858;42.714;23.180;2023-04-09T01:56:26;94615.00;;;7.97;85.32
21395;BME280;10858;42.714;23.180;2023-04-09T01:58:52;94611.47;;;7.86;85.27
21395;BME280;10858;42.714;23.180;2023-04-09T02:03:57;94599.53;;;8.04;85.24
21395;BME280;10858;42.714;23.180;2023-04-09T02:09:20;94599.06;;;8.10;84.01
21395;BME280;10858;42.714;23.180;2023-04-09T02:11:49;94598.00;;;8.12;83.44
21395;BME280;10858;42.714;23.180;2023-04-09T02:14:16;94599.16;;;7.97;83.88
21395;BME280;10858;42.714;23.180;2023-04-09T02:16:43;94600.38;;;8.04;83.51
21395;BME280;10858;42.714;23.180;2023-04-09T02:19:10;94600.69;;;7.89;83.90
21395;BME280;10858;42.714;23.180;2023-04-09T02:21:36;94599.44;;;8.05;83.52
21395;BME280;10858;42.714;23.180;2023-04-09T02:24:02;94603.00;;;7.93;83.87
21395;BME280;10858;42.714;23.180;2023-04-09T02:26:29;94605.63;;;7.93;84.89
21395;BME280;10858;42.714;23.180;2023-04-09T02:28:55;94603.03;;;8.04;84.33
21395;BME280;10858;42.714;23.180;2023-04-09T02:31:21;94597.88;;;8.03;84.32
21395;BME280;10858;42.714;23.180;2023-04-09T02:33:47;94600.63;;;8.01;83.86
21395;BME280;10858;42.714;23.180;2023-04-09T02:36:13;94605.13;;;7.88;84.30
21395;BME280;10858;42.714;23.180;2023-04-09T02:38:40;94603.94;;;7.92;83.56
21395;BME280;10858;42.714;23.180;2023-04-09T02:41:07;94597.03;;;7.79;83.37
21395;BME280;10858;42.714;23.180;2023-04-09T02:43:34;94602.94;;;7.58;83.74
21395;BME280;10858;42.714;23.180;2023-04-09T02:46:00;94597.25;;;7.52;83.97
21395;BME280;10858;42.714;23.180;2023-04-09T02:48:26;94596.88;;;7.45;83.74
21395;BME280;10858;42.714;23.180;2023-04-09T02:50:52;94592.88;;;7.40;83.31
21395;BME280;10858;42.714;23.180;2023-04-09T02:53:19;94596.34;;;7.17;84.15
21395;BME280;10858;42.714;23.180;2023-04-09T02:55:46;94589.38;;;7.16;84.33
21395;BME280;10858;42.714;23.180;2023-04-09T02:58:12;94593.41;;;7.09;83.83
21395;BME280;10858;42.714;23.180;2023-04-09T03:00:39;94593.09;;;7.13;83.94
21395;BME280;10858;42.714;23.180;2023-04-09T03:03:05;94602.84;;;7.24;83.43
21395;BME280;10858;42.714;23.180;2023-04-09T03:05:31;94596.88;;;7.45;82.99
21395;BME280;10858;42.714;23.180;2023-04-09T03:07:57;94599.44;;;7.58;82.45
21395;BME280;10858;42.714;23.180;2023-04-09T03:10:23;94588.16;;;7.32;83.15
21395;BME280;10858;42.714;23.180;2023-04-09T03:12:49;94593.13;;;7.37;83.48
21395;BME280;10858;42.714;23.180;2023-04-09T03:15:16;94594.56;;;7.41;82.78
21395;BME280;10858;42.714;23.180;2023-04-09T03:17:42;94588.03;;;7.34;82.55
21395;BME280;10858;42.714;23.180;2023-04-09T03:20:08;94590.75;;;7.21;82.87
21395;BME280;10858;42.714;23.180;2023-04-09T03:22:38;94594.94;;;7.24;82.88
21395;BME280;10858;42.714;23.180;2023-04-09T03:25:05;94592.41;;;7.22;82.62
21395;BME280;10858;42.714;23.180;2023-04-09T03:27:31;94589.44;;;6.91;84.24
21395;BME280;10858;42.714;23.180;2023-04-09T03:29:58;94591.22;;;7.03;83.37
21395;BME280;10858;42.714;23.180;2023-04-09T03:32:24;94585.69;;;7.06;83.37
21395;BME280;10858;42.714;23.180;2023-04-09T03:34:50;94599.72;;;7.19;82.54
21395;BME280;10858;42.714;23.180;2023-04-09T03:37:16;94592.81;;;6.80;84.01
21395;BME280;10858;42.714;23.180;2023-04-09T03:39:42;94595.16;;;6.84;83.30
21395;BME280;10858;42.714;23.180;2023-04-09T03:42:09;94589.31;;;6.92;82.45
21395;BME280;10858;42.714;23.180;2023-04-09T03:44:35;94596.63;;;6.88;82.56
21395;BME280;10858;42.714;23.180;2023-04-09T03:47:01;94600.75;;;6.67;82.96
21395;BME280;10858;42.714;23.180;2023-04-09T03:49:28;94603.72;;;6.63;82.95
21395;BME280;10858;42.714;23.180;2023-04-09T03:51:54;94601.06;;;6.50;83.50
21395;BME280;10858;42.714;23.180;2023-04-09T03:54:20;94608.88;;;6.64;83.01
21395;BME280;10858;42.714;23.180;2023-04-09T03:56:46;94607.19;;;6.51;83.02
21395;BME280;10858;42.714;23.180;2023-04-09T03:59:12;94614.56;;;6.46;83.12
21395;BME280;10858;42.714;23.180;2023-04-09T04:01:39;94611.31;;;6.42;82.95
21395;BME280;10858;42.714;23.180;2023-04-09T04:04:05;94610.44;;;6.42;82.85
21395;BME280;10858;42.714;23.180;2023-04-09T04:06:33;94608.66;;;6.42;82.72
21395;BME280;10858;42.714;23.180;2023-04-09T04:09:00;94608.03;;;6.39;82.90
21395;BME280;10858;42.714;23.180;2023-04-09T04:11:26;94609.28;;;6.46;82.77
21395;BME280;10858;42.714;23.180;2023-04-09T04:13:52;94615.09;;;6.38;83.34
21395;BME280;10858;42.714;23.180;2023-04-09T04:16:20;94616.56;;;6.42;83.87
21395;BME280;10858;42.714;23.180;2023-04-09T04:18:46;94610.75;;;6.50;84.00
21395;BME280;10858;42.714;23.180;2023-04-09T04:21:16;94610.13;;;6.46;84.55
21395;BME280;10858;42.714;23.180;2023-04-09T04:23:42;94608.97;;;6.50;84.89
21395;BME280;10858;42.714;23.180;2023-04-09T04:26:09;94609.50;;;6.55;85.07
21395;BME280;10858;42.714;23.180;2023-04-09T04:28:39;94614.66;;;6.82;85.26
21395;BME280;10858;42.714;23.180;2023-04-09T04:31:09;94615.44;;;7.08;84.78
21395;BME280;10858;42.714;23.180;2023-04-09T04:33:37;94614.28;;;7.12;84.90
21395;BME280;10858;42.714;23.180;2023-04-09T04:36:11;94612.53;;;7.36;85.42
21395;BME280;10858;42.714;23.180;2023-04-09T04:38:37;94616.09;;;7.71;85.42
21395;BME280;10858;42.714;23.180;2023-04-09T04:41:04;94607.91;;;7.98;85.10
21395;BME280;10858;42.714;23.180;2023-04-09T04:43:31;94611.66;;;8.30;85.89
21395;BME280;10858;42.714;23.180;2023-04-09T04:45:57;94608.03;;;8.77;85.75
21395;BME280;10858;42.714;23.180;2023-04-09T04:48:23;94618.84;;;9.18;86.12
21395;BME280;10858;42.714;23.180;2023-04-09T04:50:57;94618.22;;;10.01;85.42
21395;BME280;10858;42.714;23.180;2023-04-09T04:53:24;94612.66;;;10.77;84.38
21395;BME280;10858;42.714;23.180;2023-04-09T04:55:50;94614.97;;;10.91;79.14
21395;BME280;10858;42.714;23.180;2023-04-09T04:58:16;94617.88;;;11.19;77.11
21395;BME280;10858;42.714;23.180;2023-04-09T05:00:43;94614.13;;;10.91;76.52
21395;BME280;10858;42.714;23.180;2023-04-09T05:03:09;94617.75;;;11.50;74.53
21395;BME280;10858;42.714;23.180;2023-04-09T05:05:36;94617.00;;;11.39;74.89
21395;BME280;10858;42.714;23.180;2023-04-09T05:08:02;94616.63;;;11.13;75.92
21395;BME280;10858;42.714;23.180;2023-04-09T05:10:28;94624.88;;;11.50;73.35
21395;BME280;10858;42.714;23.180;2023-04-09T05:12:54;94620.00;;;10.94;72.80
21395;BME280;10858;42.714;23.180;2023-04-09T05:15:21;94624.94;;;10.05;74.34
21395;BME280;10858;42.714;23.180;2023-04-09T05:17:47;94626.56;;;9.86;76.75
21395;BME280;10858;42.714;23.180;2023-04-09T05:20:14;94620.34;;;9.65;76.66
21395;BME280;10858;42.714;23.180;2023-04-09T05:22:40;94624.03;;;9.84;77.26
21395;BME280;10858;42.714;23.180;2023-04-09T05:25:07;94624.25;;;9.92;76.61
21395;BME280;10858;42.714;23.180;2023-04-09T05:27:34;94616.63;;;10.42;76.48
21395;BME280;10858;42.714;23.180;2023-04-09T05:30:00;94613.50;;;10.57;76.75
21395;BME280;10858;42.714;23.180;2023-04-09T05:32:26;94622.28;;;10.78;74.31
21395;BME280;10858;42.714;23.180;2023-04-09T05:34:52;94621.16;;;11.22;73.08
21395;BME280;10858;42.714;23.180;2023-04-09T05:37:18;94621.22;;;11.51;71.24
21395;BME280;10858;42.714;23.180;2023-04-09T05:39:45;94622.91;;;12.01;70.55
21395;BME280;10858;42.714;23.180;2023-04-09T05:42:11;94624.06;;;12.18;68.79
21395;BME280;10858;42.714;23.180;2023-04-09T05:44:37;94628.25;;;12.68;67.05
21395;BME280;10858;42.714;23.180;2023-04-09T05:47:03;94625.19;;;12.25;66.22
21395;BME280;10858;42.714;23.180;2023-04-09T05:49:30;94626.72;;;12.27;68.11
21395;BME280;10858;42.714;23.180;2023-04-09T05:51:56;94629.66;;;12.53;66.12
21395;BME280;10858;42.714;23.180;2023-04-09T05:54:22;94626.44;;;12.49;67.10
21395;BME280;10858;42.714;23.180;2023-04-09T05:56:48;94627.53;;;13.50;65.66
21395;BME280;10858;42.714;23.180;2023-04-09T05:59:14;94622.06;;;14.59;62.53
21395;BME280;10858;42.714;23.180;2023-04-09T06:01:41;94617.84;;;15.17;59.47
21395;BME280;10858;42.714;23.180;2023-04-09T06:04:07;94616.91;;;15.01;59.88
21395;BME280;10858;42.714;23.180;2023-04-09T06:06:33;94614.69;;;14.35;59.29
21395;BME280;10858;42.714;23.180;2023-04-09T06:08:59;94619.72;;;14.38;62.43
21395;BME280;10858;42.714;23.180;2023-04-09T06:11:25;94618.63;;;14.84;60.63
21395;BME280;10858;42.714;23.180;2023-04-09T06:13:52;94619.09;;;14.62;60.54
21395;BME280;10858;42.714;23.180;2023-04-09T06:16:18;94624.22;;;14.38;61.02
21395;BME280;10858;42.714;23.180;2023-04-09T06:18:44;94620.53;;;14.39;58.66
21395;BME280;10858;42.714;23.180;2023-04-09T06:21:11;94616.66;;;14.33;60.58
21395;BME280;10858;42.714;23.180;2023-04-09T06:23:38;94630.69;;;13.91;59.85
21395;BME280;10858;42.714;23.180;2023-04-09T06:26:04;94631.69;;;14.07;60.38
21395;BME280;10858;42.714;23.180;2023-04-09T06:28:31;94629.09;;;12.78;61.93
21395;BME280;10858;42.714;23.180;2023-04-09T06:30:58;94620.13;;;12.41;64.54
21395;BME280;10858;42.714;23.180;2023-04-09T06:33:24;94624.34;;;12.53;64.17
21395;BME280;10858;42.714;23.180;2023-04-09T06:35:51;94629.03;;;13.07;62.83
21395;BME280;10858;42.714;23.180;2023-04-09T06:38:17;94632.94;;;13.86;62.29
21395;BME280;10858;42.714;23.180;2023-04-09T06:40:43;94628.94;;;14.44;57.87
21395;BME280;10858;42.714;23.180;2023-04-09T06:43:10;94632.75;;;15.79;55.97
21395;BME280;10858;42.714;23.180;2023-04-09T06:45:36;94637.81;;;15.49;55.16
21395;BME280;10858;42.714;23.180;2023-04-09T06:48:03;94632.53;;;15.13;55.90
21395;BME280;10858;42.714;23.180;2023-04-09T06:50:29;94633.34;;;14.88;55.82
21395;BME280;10858;42.714;23.180;2023-04-09T06:52:56;94630.56;;;14.98;56.52
21395;BME280;10858;42.714;23.180;2023-04-09T06:55:22;94629.63;;;14.28;58.73
21395;BME280;10858;42.714;23.180;2023-04-09T06:57:48;94630.56;;;14.10;59.81
21395;BME280;10858;42.714;23.180;2023-04-09T07:00:14;94636.13;;;13.99;60.25
21395;BME280;10858;42.714;23.180;2023-04-09T07:02:41;94637.63;;;14.01;59.16
21395;BME280;10858;42.714;23.180;2023-04-09T07:05:07;94633.66;;;13.24;61.23
21395;BME280;10858;42.714;23.180;2023-04-09T07:07:34;94636.81;;;13.37;60.85
21395;BME280;10858;42.714;23.180;2023-04-09T07:10:00;94634.09;;;13.00;59.83
21395;BME280;10858;42.714;23.180;2023-04-09T07:12:29;94632.97;;;12.93;61.22
21395;BME280;10858;42.714;23.180;2023-04-09T07:15:03;94641.38;;;12.89;59.30
21395;BME280;10858;42.714;23.180;2023-04-09T07:17:33;94642.66;;;13.50;60.31
21395;BME280;10858;42.714;23.180;2023-04-09T07:20:00;94642.69;;;14.04;58.05
21395;BME280;10858;42.714;23.180;2023-04-09T07:22:28;94641.75;;;13.96;58.77
21395;BME280;10858;42.714;23.180;2023-04-09T07:24:55;94646.88;;;13.80;57.58
21395;BME280;10858;42.714;23.180;2023-04-09T07:27:24;94649.66;;;13.60;58.15
21395;BME280;10858;42.714;23.180;2023-04-09T07:29:53;94648.03;;;13.31;60.13
21395;BME280;10858;42.714;23.180;2023-04-09T07:32:19;94637.03;;;12.97;62.29
21395;BME280;10858;42.714;23.180;2023-04-09T07:34:45;94646.69;;;13.17;59.89
21395;BME280;10858;42.714;23.180;2023-04-09T07:37:11;94650.75;;;13.95;60.07
21395;BME280;10858;42.714;23.180;2023-04-09T07:39:37;94654.50;;;13.65;56.71
21395;BME280;10858;42.714;23.180;2023-04-09T07:42:04;94651.75;;;13.20;59.95
21395;BME280;10858;42.714;23.180;2023-04-09T07:44:34;94651.50;;;12.28;62.31
21395;BME280;10858;42.714;23.180;2023-04-09T07:47:02;94650.66;;;12.37;62.87
21395;BME280;10858;42.714;23.180;2023-04-09T07:49:28;94653.38;;;13.31;59.79
21395;BME280;10858;42.714;23.180;2023-04-09T07:51:55;94646.66;;;13.36;59.04
21395;BME280;10858;42.714;23.180;2023-04-09T07:54:22;94648.25;;;13.56;57.24
21395;BME280;10858;42.714;23.180;2023-04-09T07:56:48;94653.69;;;13.92;57.43
21395;BME280;10858;42.714;23.180;2023-04-09T07:59:14;94658.81;;;13.48;58.51
21395;BME280;10858;42.714;23.180;2023-04-09T08:01:41;94649.31;;;13.36;60.10
21395;BME280;10858;42.714;23.180;2023-04-09T08:04:08;94659.91;;;12.90;58.16
21395;BME280;10858;42.714;23.180;2023-04-09T08:06:34;94654.59;;;12.80;58.77
21395;BME280;10858;42.714;23.180;2023-04-09T08:09:01;94652.59;;;13.11;60.37
21395;BME280;10858;42.714;23.180;2023-04-09T08:11:27;94653.66;;;14.19;54.12
21395;BME280;10858;42.714;23.180;2023-04-09T08:13:54;94651.81;;;14.64;52.08
21395;BME280;10858;42.714;23.180;2023-04-09T08:16:22;94661.50;;;15.00;52.35
21395;BME280;10858;42.714;23.180;2023-04-09T08:18:52;94659.53;;;15.28;54.03
21395;BME280;10858;42.714;23.180;2023-04-09T08:21:19;94652.44;;;14.58;50.72
21395;BME280;10858;42.714;23.180;2023-04-09T08:23:45;94653.91;;;15.13;51.38
21395;BME280;10858;42.714;23.180;2023-04-09T08:26:11;94659.00;;;15.76;52.34
21395;BME280;10858;42.714;23.180;2023-04-09T08:28:37;94653.22;;;16.38;47.83
21395;BME280;10858;42.714;23.180;2023-04-09T08:31:03;94659.59;;;15.95;50.40
21395;BME280;10858;42.714;23.180;2023-04-09T08:33:30;94656.44;;;15.15;49.17
21395;BME280;10858;42.714;23.180;2023-04-09T08:35:56;94648.59;;;14.43;52.39
21395;BME280;10858;42.714;23.180;2023-04-09T08:38:22;94646.66;;;15.06;50.64
21395;BME280;10858;42.714;23.180;2023-04-09T08:40:48;94646.81;;;15.81;47.39
21395;BME280;10858;42.714;23.180;2023-04-09T08:43:15;94647.59;;;16.07;49.32
21395;BME280;10858;42.714;23.180;2023-04-09T08:45:41;94637.41;;;14.75;50.59
21395;BME280;10858;42.714;23.180;2023-04-09T08:48:12;94641.50;;;15.56;50.68
21395;BME280;10858;42.714;23.180;2023-04-09T08:50:39;94639.84;;;15.55;51.07
21395;BME280;10858;42.714;23.180;2023-04-09T08:53:07;94636.56;;;15.17;51.83
21395;BME280;10858;42.714;23.180;2023-04-09T08:55:34;94631.88;;;16.04;50.47
21395;BME280;10858;42.714;23.180;2023-04-09T08:58:03;94626.38;;;15.13;50.52
21395;BME280;10858;42.714;23.180;2023-04-09T09:00:29;94635.69;;;15.09;51.35
21395;BME280;10858;42.714;23.180;2023-04-09T09:03:07;94641.59;;;14.77;51.09
21395;BME280;10858;42.714;23.180;2023-04-09T09:05:41;94638.19;;;14.05;53.29
21395;BME280;10858;42.714;23.180;2023-04-09T09:08:10;94637.06;;;13.43;53.89
21395;BME280;10858;42.714;23.180;2023-04-09T09:10:41;94640.00;;;14.49;51.73
21395;BME280;10858;42.714;23.180;2023-04-09T09:15:49;94643.25;;;14.43;52.20
21395;BME280;10858;42.714;23.180;2023-04-09T09:18:20;94633.59;;;15.20;50.55
21395;BME280;10858;42.714;23.180;2023-04-09T09:20:47;94626.03;;;15.16;50.50
21395;BME280;10858;42.714;23.180;2023-04-09T09:23:13;94637.56;;;15.68;48.69
21395;BME280;10858;42.714;23.180;2023-04-09T09:25:43;94630.50;;;14.90;51.80
21395;BME280;10858;42.714;23.180;2023-04-09T09:28:11;94626.75;;;15.00;52.26
21395;BME280;10858;42.714;23.180;2023-04-09T09:30:39;94634.09;;;15.75;50.77
21395;BME280;10858;42.714;23.180;2023-04-09T09:33:09;94633.06;;;15.68;47.82
21395;BME280;10858;42.714;23.180;2023-04-09T09:35:51;94628.97;;;15.30;50.35
21395;BME280;10858;42.714;23.180;2023-04-09T09:38:19;94613.81;;;14.88;48.88
21395;BME280;10858;42.714;23.180;2023-04-09T09:40:46;94623.34;;;14.90;51.72
21395;BME280;10858;42.714;23.180;2023-04-09T09:43:13;94624.28;;;14.64;52.18
21395;BME280;10858;42.714;23.180;2023-04-09T09:45:40;94621.88;;;14.08;52.15
21395;BME280;10858;42.714;23.180;2023-04-09T09:48:08;94619.22;;;13.53;55.32
21395;BME280;10858;42.714;23.180;2023-04-09T09:50:35;94619.97;;;14.00;52.60
21395;BME280;10858;42.714;23.180;2023-04-09T09:53:07;94613.66;;;13.74;52.42
21395;BME280;10858;42.714;23.180;2023-04-09T09:55:38;94609.25;;;14.45;53.25
21395;BME280;10858;42.714;23.180;2023-04-09T09:58:21;94607.91;;;15.02;50.94
21395;BME280;10858;42.714;23.180;2023-04-09T10:00:50;94610.28;;;14.87;52.38
21395;BME280;10858;42.714;23.180;2023-04-09T10:03:37;94601.50;;;14.34;50.46
21395;BME280;10858;42.714;23.180;2023-04-09T10:06:05;94597.94;;;13.71;51.65
21395;BME280;10858;42.714;23.180;2023-04-09T10:08:33;94604.41;;;14.13;53.18
21395;BME280;10858;42.714;23.180;2023-04-09T10:11:01;94610.72;;;15.00;52.01
21395;BME280;10858;42.714;23.180;2023-04-09T10:13:29;94610.91;;;15.92;49.10
21395;BME280;10858;42.714;23.180;2023-04-09T10:15:58;94604.53;;;15.25;47.76
21395;BME280;10858;42.714;23.180;2023-04-09T10:18:25;94598.34;;;14.74;49.73
21395;BME280;10858;42.714;23.180;2023-04-09T10:23:38;94597.63;;;14.89;50.67
21395;BME280;10858;42.714;23.180;2023-04-09T10:26:05;94596.88;;;14.09;50.62
21395;BME280;10858;42.714;23.180;2023-04-09T10:28:32;94598.78;;;14.69;49.70
21395;BME280;10858;42.714;23.180;2023-04-09T10:30:59;94598.56;;;14.45;49.87
21395;BME280;10858;42.714;23.180;2023-04-09T10:33:26;94591.47;;;14.18;51.30
21395;BME280;10858;42.714;23.180;2023-04-09T10:36:02;94590.59;;;14.88;50.41
21395;BME280;10858;42.714;23.180;2023-04-09T10:38:35;94594.50;;;14.06;49.71
21395;BME280;10858;42.714;23.180;2023-04-09T10:43:45;94582.50;;;13.47;52.43
21395;BME280;10858;42.714;23.180;2023-04-09T10:46:28;94595.34;;;13.89;51.22
21395;BME280;10858;42.714;23.180;2023-04-09T10:49:15;94595.78;;;13.84;51.36
21395;BME280;10858;42.714;23.180;2023-04-09T10:51:47;94591.47;;;13.74;51.43
21395;BME280;10858;42.714;23.180;2023-04-09T10:57:20;94570.41;;;13.98;48.48
21395;BME280;10858;42.714;23.180;2023-04-09T10:59:49;94570.13;;;14.01;48.06
21395;BME280;10858;42.714;23.180;2023-04-09T11:07:44;94568.63;;;13.44;50.35
21395;BME280;10858;42.714;23.180;2023-04-09T11:10:12;94568.38;;;13.64;50.82
21395;BME280;10858;42.714;23.180;2023-04-09T11:12:38;94566.50;;;13.47;50.21
21395;BME280;10858;42.714;23.180;2023-04-09T11:15:04;94564.72;;;13.02;50.00
21395;BME280;10858;42.714;23.180;2023-04-09T11:17:35;94581.81;;;12.99;51.33
21395;BME280;10858;42.714;23.180;2023-04-09T11:20:02;94589.91;;;13.53;52.37
21395;BME280;10858;42.714;23.180;2023-04-09T11:22:28;94583.66;;;13.35;53.95
21395;BME280;10858;42.714;23.180;2023-04-09T11:24:55;94584.63;;;13.07;57.24
21395;BME280;10858;42.714;23.180;2023-04-09T11:27:21;94583.75;;;13.16;57.07
21395;BME280;10858;42.714;23.180;2023-04-09T11:29:47;94582.19;;;13.78;57.10
21395;BME280;10858;42.714;23.180;2023-04-09T11:32:13;94567.53;;;14.09;56.29
21395;BME280;10858;42.714;23.180;2023-04-09T11:34:40;94570.66;;;13.59;57.51
21395;BME280;10858;42.714;23.180;2023-04-09T11:37:06;94564.97;;;13.45;58.73
21395;BME280;10858;42.714;23.180;2023-04-09T11:39:37;94568.84;;;13.23;57.52
21395;BME280;10858;42.714;23.180;2023-04-09T11:42:03;94570.59;;;13.42;59.15
21395;BME280;10858;42.714;23.180;2023-04-09T11:44:29;94571.94;;;13.55;58.75
21395;BME280;10858;42.714;23.180;2023-04-09T11:46:57;94575.16;;;12.76;61.01
21395;BME280;10858;42.714;23.180;2023-04-09T11:49:24;94565.09;;;12.51;62.86
21395;BME280;10858;42.714;23.180;2023-04-09T11:51:50;94574.34;;;11.80;62.28
21395;BME280;10858;42.714;23.180;2023-04-09T11:54:17;94569.69;;;11.72;64.58
21395;BME280;10858;42.714;23.180;2023-04-09T11:56:43;94568.06;;;11.90;64.60
21395;BME280;10858;42.714;23.180;2023-04-09T11:59:12;94568.91;;;12.20;64.16
21395;BME280;10858;42.714;23.180;2023-04-09T12:01:39;94564.09;;;12.61;64.86
21395;BME280;10858;42.714;23.180;2023-04-09T12:04:05;94569.00;;;12.66;63.77
21395;BME280;10858;42.714;23.180;2023-04-09T12:06:32;94561.88;;;12.57;64.59
21395;BME280;10858;42.714;23.180;2023-04-09T12:09:08;94565.03;;;12.89;65.06
21395;BME280;10858;42.714;23.180;2023-04-09T12:11:37;94561.88;;;12.47;63.48
21395;BME280;10858;42.714;23.180;2023-04-09T12:14:10;94557.38;;;12.67;64.30
21395;BME280;10858;42.714;23.180;2023-04-09T12:16:37;94557.41;;;12.48;65.80
21395;BME280;10858;42.714;23.180;2023-04-09T12:19:07;94554.31;;;12.62;66.39
21395;BME280;10858;42.714;23.180;2023-04-09T12:21:53;94555.72;;;12.66;65.64
21395;BME280;10858;42.714;23.180;2023-04-09T12:24:23;94553.88;;;12.57;65.64
21395;BME280;10858;42.714;23.180;2023-04-09T12:26:50;94553.94;;;12.94;67.53
21395;BME280;10858;42.714;23.180;2023-04-09T12:29:18;94551.41;;;13.65;62.28
21395;BME280;10858;42.714;23.180;2023-04-09T12:31:46;94553.81;;;14.21;61.54
21395;BME280;10858;42.714;23.180;2023-04-09T12:34:12;94552.44;;;14.53;61.46
21395;BME280;10858;42.714;23.180;2023-04-09T12:36:39;94543.81;;;14.59;58.40
21395;BME280;10858;42.714;23.180;2023-04-09T12:39:08;94542.44;;;14.37;59.42
21395;BME280;10858;42.714;23.180;2023-04-09T12:41:35;94546.66;;;14.39;58.84
21395;BME280;10858;42.714;23.180;2023-04-09T12:44:01;94537.72;;;13.96;60.75
21395;BME280;10858;42.714;23.180;2023-04-09T12:46:28;94539.09;;;14.00;60.58
21395;BME280;10858;42.714;23.180;2023-04-09T12:48:54;94530.72;;;14.30;59.49
21395;BME280;10858;42.714;23.180;2023-04-09T12:51:20;94536.25;;;14.01;57.90
21395;BME280;10858;42.714;23.180;2023-04-09T12:53:46;94529.28;;;14.00;58.87
21395;BME280;10858;42.714;23.180;2023-04-09T12:56:13;94529.88;;;14.12;58.66
21395;BME280;10858;42.714;23.180;2023-04-09T12:58:39;94525.47;;;14.20;58.14
21395;BME280;10858;42.714;23.180;2023-04-09T13:01:05;94523.94;;;14.00;57.74
21395;BME280;10858;42.714;23.180;2023-04-09T13:03:32;94523.94;;;13.83;58.40
21395;BME280;10858;42.714;23.180;2023-04-09T13:05:58;94522.53;;;13.34;58.60
21395;BME280;10858;42.714;23.180;2023-04-09T13:08:24;94522.69;;;13.32;59.65
21395;BME280;10858;42.714;23.180;2023-04-09T13:10:50;94515.53;;;13.95;57.86
21395;BME280;10858;42.714;23.180;2023-04-09T13:13:16;94515.63;;;13.86;58.27
21395;BME280;10858;42.714;23.180;2023-04-09T13:15:42;94507.75;;;13.67;57.80
21395;BME280;10858;42.714;23.180;2023-04-09T13:18:10;94511.97;;;13.87;57.92
21395;BME280;10858;42.714;23.180;2023-04-09T13:20:36;94507.22;;;14.16;56.78
21395;BME280;10858;42.714;23.180;2023-04-09T13:23:02;94505.34;;;14.08;58.05
21395;BME280;10858;42.714;23.180;2023-04-09T13:25:29;94507.97;;;13.55;58.22